Time;durP1;ratioP1;P1;durP2;ratioP2;P2;SDS_P1;SDS_P2;PMS_P1;PMS_P2;Temp;Humidity;BMP_temperature;BMP_pressure;BME280_temperature;BME280_humidity;BME280_pressure;Samples;Min_cycle;Max_cycle;Signal;HPM_P1;HPM_P2
2022/12/27 00:01:28;;;;;;;11.20;1.80;;;6.40;99.90;;;;;;5037941;28;21007;-66
2022/12/27 00:03:55;;;;;;;7.20;1.80;;;6.30;99.90;;;;;;5038172;28;20456;-67
2022/12/27 00:06:25;;;;;;;11.00;1.70;;;6.30;99.90;;;;;;5037921;28;20466;-68
2022/12/27 00:08:53;;;;;;;9.93;1.77;;;6.30;99.90;;;;;;5037589;28;20535;-67
2022/12/27 00:11:22;;;;;;;12.23;2.10;;;6.30;99.90;;;;;;5037653;28;20921;-67
2022/12/27 00:13:49;;;;;;;5.80;1.83;;;6.20;99.90;;;;;;5037556;28;20486;-66
2022/12/27 00:16:18;;;;;;;6.57;1.60;;;6.10;99.90;;;;;;5037523;28;20470;-67
2022/12/27 00:18:46;;;;;;;6.03;1.97;;;6.10;99.90;;;;;;5037757;28;20975;-66
2022/12/27 00:21:13;;;;;;;12.00;3.20;;;6.00;1.00;;;;;;5037700;28;20456;-68
2022/12/27 00:23:43;;;;;;;8.67;1.97;;;6.00;1.00;;;;;;5037674;28;20539;-67
2022/12/27 00:26:12;;;;;;;10.57;2.10;;;5.90;1.00;;;;;;5037725;28;20466;-67
2022/12/27 00:28:39;;;;;;;12.27;2.10;;;5.90;1.00;;;;;;5038472;28;20456;-66
2022/12/27 00:31:06;;;;;;;9.90;2.20;;;5.90;1.00;;;;;;5038812;28;20749;-66
2022/12/27 00:33:35;;;;;;;9.10;1.37;;;5.80;1.00;;;;;;5038612;28;20480;-67
2022/12/27 00:36:04;;;;;;;10.43;1.90;;;5.80;1.00;;;;;;5038712;28;20455;-67
2022/12/27 00:38:31;;;;;;;8.13;1.53;;;5.80;1.00;;;;;;5038117;28;20555;-68
2022/12/27 00:41:00;;;;;;;4.80;1.43;;;5.80;1.00;;;;;;5038561;28;20539;-67
2022/12/27 00:43:27;;;;;;;6.90;1.80;;;5.80;99.90;;;;;;5038466;28;20927;-67
2022/12/27 00:45:54;;;;;;;8.23;1.87;;;5.70;1.00;;;;;;5037874;28;20484;-67
2022/12/27 00:48:20;;;;;;;8.90;1.70;;;5.70;99.90;;;;;;5038305;28;20466;-67
2022/12/27 00:50:48;;;;;;;7.87;1.47;;;5.60;99.90;;;;;;5038275;28;20466;-66
2022/12/27 00:53:14;;;;;;;10.80;1.80;;;5.60;99.90;;;;;;5038096;28;20483;-66
2022/12/27 00:55:43;;;;;;;8.47;2.00;;;5.60;99.90;;;;;;5038476;28;20462;-66
2022/12/27 00:58:11;;;;;;;13.63;2.00;;;5.60;1.00;;;;;;5040111;28;20456;-68
2022/12/27 01:00:38;;;;;;;6.33;1.77;;;5.60;99.90;;;;;;5039093;28;20543;-67
2022/12/27 01:03:05;;;;;;;5.27;1.63;;;5.60;1.00;;;;;;5040477;28;20786;-66
2022/12/27 01:05:35;;;;;;;8.13;1.80;;;5.50;1.00;;;;;;5038474;28;20460;-67
2022/12/27 01:08:02;;;;;;;16.63;2.00;;;5.50;1.00;;;;;;5037141;28;20464;-66
2022/12/27 01:10:28;;;;;;;7.20;1.97;;;5.40;1.00;;;;;;5036860;28;20546;-67
2022/12/27 01:12:56;;;;;;;6.17;2.03;;;5.40;1.00;;;;;;5036768;28;20570;-67
2022/12/27 01:15:24;;;;;;;9.20;2.10;;;5.30;99.90;;;;;;5036957;28;20539;-67
2022/12/27 01:17:51;;;;;;;8.60;1.90;;;5.30;99.90;;;;;;5037421;28;20488;-67
2022/12/27 01:20:17;;;;;;;5.90;1.77;;;5.20;99.90;;;;;;5036781;28;20455;-67
2022/12/27 01:22:44;;;;;;;4.47;1.40;;;5.20;1.00;;;;;;5037079;28;20815;-66
2022/12/27 01:25:11;;;;;;;4.20;1.70;;;5.20;1.00;;;;;;5036746;28;20456;-67
2022/12/27 01:27:38;;;;;;;9.07;1.73;;;5.20;99.90;;;;;;5036674;28;20460;-67
2022/12/27 01:30:06;;;;;;;5.47;1.80;;;5.10;99.90;;;;;;5036232;28;20919;-67
2022/12/27 01:32:35;;;;;;;5.40;1.60;;;5.10;1.00;;;;;;5036426;28;20486;-66
2022/12/27 01:35:02;;;;;;;6.70;1.50;;;5.00;1.00;;;;;;5035994;28;20925;-66
2022/12/27 01:37:29;;;;;;;10.40;2.27;;;5.00;1.00;;;;;;5037122;28;20555;-66
2022/12/27 01:39:56;;;;;;;7.80;2.17;;;5.00;22.30;;;;;;5036458;28;20466;-66
2022/12/27 01:45:15;;;;;;;6.90;1.80;;;4.90;1.00;;;;;;5036129;28;20420;-66
2022/12/27 01:47:53;;;;;;;17.23;2.77;;;4.90;99.90;;;;;;5036098;28;20535;-67
2022/12/27 01:50:26;;;;;;;8.30;2.07;;;4.80;1.00;;;;;;5035712;28;20440;-66
2022/12/27 01:52:57;;;;;;;11.43;3.20;;;4.80;1.00;;;;;;5035622;28;20445;-67
2022/12/27 01:55:30;;;;;;;9.60;2.17;;;4.70;1.00;;;;;;5036034;28;20459;-67
2022/12/27 01:58:01;;;;;;;11.83;2.27;;;4.70;1.00;;;;;;5035640;28;20444;-65
2022/12/27 02:00:28;;;;;;;16.23;2.67;;;4.60;1.00;;;;;;5036365;28;20744;-67
2022/12/27 02:02:57;;;;;;;9.63;2.53;;;4.60;1.00;;;;;;5035822;28;20460;-66
2022/12/27 02:05:24;;;;;;;14.23;3.10;;;4.60;99.90;;;;;;5036087;28;20460;-66
2022/12/27 02:08:02;;;;;;;10.50;2.10;;;4.60;99.90;;;;;;5036035;28;20464;-67
2022/12/27 02:10:29;;;;;;;5.37;1.80;;;4.60;99.90;;;;;;5035848;28;20444;-65
2022/12/27 02:12:58;;;;;;;8.13;2.47;;;4.60;99.90;;;;;;5034817;28;20460;-66
2022/12/27 02:15:24;;;;;;;12.90;2.60;;;4.50;99.90;;;;;;5035308;28;20467;-66
2022/12/27 02:17:51;;;;;;;5.67;1.40;;;4.50;99.90;;;;;;5035165;28;20456;-66
2022/12/27 02:20:22;;;;;;;6.87;2.30;;;4.50;99.90;;;;;;5035189;28;20462;-66
2022/12/27 02:26:25;;;;;;;5.00;1.77;;;4.50;99.90;;;;;;5035551;28;20423;-67
2022/12/27 02:29:07;;;;;;;9.77;2.10;;;4.50;99.90;;;;;;5035504;28;20455;-67
2022/12/27 02:31:41;;;;;;;14.43;2.27;;;4.50;98.20;;;;;;5035000;28;20450;-66
2022/12/27 02:34:13;;;;;;;10.83;2.40;;;4.60;99.90;;;;;;5035842;28;20733;-67
2022/12/27 02:36:42;;;;;;;7.20;1.70;;;4.50;99.90;;;;;;5034835;28;20455;-65
2022/12/27 02:39:10;;;;;;;13.70;2.23;;;4.50;45.20;;;;;;5034926;28;20466;-66
2022/12/27 02:53:06;;;;;;;13.77;2.00;;;4.40;99.90;;;;;;5035029;28;20568;-67
2022/12/27 02:59:06;;;;;;;6.60;1.97;;;4.40;99.90;;;;;;5026523;28;20494;-67
2022/12/27 03:04:51;;;;;;;3.17;1.50;;;4.40;99.90;;;;;;5034763;28;20431;-66
2022/12/27 03:07:27;;;;;;;10.40;3.40;;;4.30;99.90;;;;;;5034429;28;20444;-66
2022/12/27 03:15:55;;;;;;;5.67;1.90;;;4.30;99.90;;;;;;5034249;28;20447;-66
2022/12/27 03:18:41;;;;;;;7.87;2.10;;;4.30;99.90;;;;;;5034503;28;20458;-66
2022/12/27 03:26:45;;;;;;;5.20;1.60;;;4.20;99.90;;;;;;5034478;28;20428;-66
2022/12/27 03:34:52;;;;;;;5.50;2.20;;;4.30;99.90;;;;;;5034788;28;20460;-66
2022/12/27 03:40:12;;;;;;;6.00;2.17;;;4.20;99.90;;;;;;5034413;28;20490;-66
2022/12/27 03:48:33;;;;;;;7.07;2.43;;;4.30;99.90;;;;;;5034499;28;20869;-66
2022/12/27 03:51:04;;;;;;;5.63;1.70;;;4.20;99.90;;;;;;5034378;28;20455;-66
2022/12/27 03:53:36;;;;;;;4.73;2.20;;;4.20;99.90;;;;;;5033912;28;20959;-67
2022/12/27 03:56:04;;;;;;;5.83;2.20;;;4.20;99.90;;;;;;5034108;28;20860;-67
2022/12/27 03:58:31;;;;;;;9.97;2.50;;;4.20;1.00;;;;;;5033791;28;20456;-67
2022/12/27 04:00:58;;;;;;;6.57;2.23;;;4.20;99.90;;;;;;5034243;28;20458;-67
2022/12/27 04:03:25;;;;;;;15.43;3.63;;;4.20;99.90;;;;;;5033897;28;20456;-67
2022/12/27 04:05:52;;;;;;;6.33;2.10;;;4.20;99.90;;;;;;5034409;28;20790;-66
2022/12/27 04:35:43;;;;;;;11.60;2.90;;;4.20;99.90;;;;;;5035145;28;20515;-66
2022/12/27 04:38:10;;;;;;;7.87;2.37;;;4.20;99.90;;;;;;5037497;28;20547;-66
2022/12/27 04:57:16;;;;;;;4.20;2.60;;;4.30;1.00;;;;;;5036790;28;20895;-67
2022/12/27 05:02:27;;;;;;;7.93;2.80;;;4.40;1.00;;;;;;5036879;28;20506;-65
2022/12/27 05:04:54;;;;;;;6.20;3.10;;;4.40;99.90;;;;;;5036917;28;20452;-66
2022/12/27 05:15:36;;;;;;;10.13;2.63;;;4.50;1.00;;;;;;5036774;28;20474;-66
2022/12/27 05:18:03;;;;;;;7.23;2.87;;;4.50;1.00;;;;;;5036860;28;20551;-66
2022/12/27 05:20:30;;;;;;;7.60;2.60;;;4.50;1.00;;;;;;5036568;28;20456;-66
2022/12/27 05:25:42;;;;;;;3.70;2.77;;;4.50;1.00;;;;;;5036725;28;20864;-66
2022/12/27 05:28:12;;;;;;;6.87;2.93;;;4.50;1.00;;;;;;5036549;28;20462;-66
2022/12/27 05:30:40;;;;;;;5.10;2.40;;;4.50;1.00;;;;;;5035826;28;20464;-67
2022/12/27 05:33:08;;;;;;;6.03;2.20;;;4.50;1.00;;;;;;5036557;28;20466;-67
2022/12/27 05:35:35;;;;;;;4.50;1.97;;;4.60;99.90;;;;;;5036484;28;20582;-67
2022/12/27 05:38:02;;;;;;;5.73;1.93;;;4.60;1.00;;;;;;5036207;28;20998;-66
2022/12/27 05:40:29;;;;;;;4.23;2.40;;;4.60;99.90;;;;;;5036317;28;20456;-65
2022/12/27 05:42:58;;;;;;;7.97;2.40;;;4.60;99.90;;;;;;5036247;28;20460;-65
2022/12/27 05:45:27;;;;;;;6.90;2.50;;;4.70;99.90;;;;;;5036755;28;20502;-67
2022/12/27 05:47:53;;;;;;;7.90;2.70;;;4.70;99.90;;;;;;5036148;28;20456;-67
2022/12/27 05:50:21;;;;;;;7.03;1.90;;;4.70;9.20;;;;;;5036621;28;20471;-65
2022/12/27 05:52:47;;;;;;;5.70;2.17;;;4.70;1.00;;;;;;5035947;28;20464;-67
2022/12/27 05:55:14;;;;;;;7.10;2.67;;;4.70;1.00;;;;;;5036073;28;20484;-66
2022/12/27 05:57:41;;;;;;;4.63;2.23;;;4.70;1.00;;;;;;5036253;28;20466;-67
2022/12/27 06:00:10;;;;;;;3.93;1.63;;;4.70;1.00;;;;;;5036366;28;20606;-67
2022/12/27 06:02:39;;;;;;;12.43;2.00;;;4.70;1.00;;;;;;5035775;28;20481;-67
2022/12/27 06:05:06;;;;;;;5.80;2.20;;;4.70;1.00;;;;;;5035933;28;20460;-67
2022/12/27 06:07:35;;;;;;;4.87;1.93;;;4.70;66.30;;;;;;5036167;28;20456;-66
2022/12/27 06:10:02;;;;;;;4.40;2.00;;;4.70;50.20;;;;;;5035676;28;20466;-66
2022/12/27 06:12:29;;;;;;;5.50;1.80;;;4.70;99.90;;;;;;5035486;28;20456;-67
2022/12/27 06:14:55;;;;;;;3.47;1.87;;;4.70;79.70;;;;;;5035312;28;20472;-66
2022/12/27 06:17:22;;;;;;;4.40;1.80;;;4.70;99.90;;;;;;5035747;28;20485;-66
2022/12/27 06:19:50;;;;;;;4.83;1.73;;;4.60;99.90;;;;;;5035901;28;20466;-67
2022/12/27 06:22:17;;;;;;;4.60;1.80;;;4.60;99.90;;;;;;5035363;28;20466;-67
2022/12/27 06:24:44;;;;;;;4.17;1.93;;;4.60;1.00;;;;;;5035329;28;20912;-66
2022/12/27 06:27:11;;;;;;;5.63;2.10;;;4.50;1.00;;;;;;5035446;28;20466;-66
2022/12/27 06:29:38;;;;;;;7.63;2.20;;;4.50;1.00;;;;;;5035518;28;20456;-66
2022/12/27 06:32:05;;;;;;;6.50;2.07;;;4.50;1.00;;;;;;5035452;28;20460;-66
2022/12/27 06:34:32;;;;;;;6.00;1.80;;;4.50;1.00;;;;;;5035178;28;20538;-66
2022/12/27 06:37:00;;;;;;;4.90;1.70;;;4.50;1.00;;;;;;5034846;28;20521;-67
2022/12/27 06:39:27;;;;;;;2.80;1.73;;;4.50;1.00;;;;;;5034995;28;20550;-67
2022/12/27 06:41:55;;;;;;;4.53;1.90;;;4.50;75.90;;;;;;5035036;28;20467;-67
2022/12/27 06:44:21;;;;;;;4.70;2.00;;;4.50;99.90;;;;;;5034710;28;20456;-67
2022/12/27 06:46:48;;;;;;;6.30;1.47;;;4.50;99.90;;;;;;5034317;28;20476;-67
2022/12/27 06:49:15;;;;;;;4.20;2.00;;;4.50;99.90;;;;;;5034984;28;20466;-67
2022/12/27 06:51:42;;;;;;;4.30;1.87;;;4.50;65.40;;;;;;5034321;28;20506;-67
2022/12/27 06:54:10;;;;;;;4.40;1.90;;;4.60;1.00;;;;;;5034577;28;20743;-67
2022/12/27 06:56:37;;;;;;;7.03;2.20;;;4.60;1.00;;;;;;5035032;28;20460;-67
2022/12/27 06:59:04;;;;;;;5.20;2.30;;;4.60;1.00;;;;;;5034092;28;20460;-67
2022/12/27 07:01:31;;;;;;;7.40;2.30;;;4.60;1.00;;;;;;5034253;28;20464;-66
2022/12/27 07:03:59;;;;;;;4.70;1.60;;;4.60;1.00;;;;;;5034809;28;20466;-67
2022/12/27 07:06:28;;;;;;;4.13;2.07;;;4.60;1.00;;;;;;5034646;28;20456;-67
2022/12/27 07:08:56;;;;;;;5.43;1.93;;;4.50;1.00;;;;;;5034707;28;20620;-67
2022/12/27 07:11:25;;;;;;;8.30;1.77;;;4.50;99.90;;;;;;5034291;28;20456;-66
2022/12/27 07:13:54;;;;;;;6.63;1.77;;;4.50;1.00;;;;;;5034633;28;20788;-67
2022/12/27 07:16:22;;;;;;;4.03;1.90;;;4.50;99.90;;;;;;5034713;28;20458;-66
2022/12/27 07:18:50;;;;;;;5.57;1.67;;;4.50;50.60;;;;;;5034760;28;20455;-67
2022/12/27 07:21:18;;;;;;;7.03;2.20;;;4.50;1.00;;;;;;5034951;28;20456;-67
2022/12/27 07:23:45;;;;;;;5.03;2.50;;;4.60;1.00;;;;;;5034341;28;20462;-67
2022/12/27 07:26:14;;;;;;;6.77;1.83;;;4.60;1.00;;;;;;5034955;28;20466;-67
2022/12/27 07:28:43;;;;;;;3.97;2.00;;;4.60;1.00;;;;;;5034335;28;20456;-67
2022/12/27 07:31:12;;;;;;;14.43;2.20;;;4.60;1.00;;;;;;5034162;28;20529;-66
2022/12/27 07:33:39;;;;;;;5.37;1.83;;;4.60;99.90;;;;;;5034147;28;20464;-67
2022/12/27 07:36:08;;;;;;;5.37;2.20;;;4.70;1.00;;;;;;5034201;28;20488;-67
2022/12/27 07:38:35;;;;;;;7.93;2.17;;;4.60;99.90;;;;;;5034461;28;20452;-66
2022/12/27 07:41:03;;;;;;;6.97;1.80;;;4.70;99.90;;;;;;5034417;28;20460;-67
2022/12/27 07:43:30;;;;;;;5.83;2.83;;;4.60;99.90;;;;;;5034032;28;20456;-67
2022/12/27 07:46:04;;;;;;;5.40;2.90;;;4.60;1.00;;;;;;5034660;28;20514;-67
2022/12/27 07:48:31;;;;;;;3.83;1.90;;;4.70;99.90;;;;;;5034492;28;20771;-67
2022/12/27 07:50:58;;;;;;;8.33;2.50;;;4.70;99.90;;;;;;5034170;28;20460;-67
2022/12/27 07:53:25;;;;;;;3.60;2.00;;;4.70;99.90;;;;;;5034379;28;20570;-67
2022/12/27 07:55:52;;;;;;;7.17;2.03;;;4.80;99.90;;;;;;5034191;28;20574;-65
2022/12/27 07:58:19;;;;;;;6.00;2.20;;;4.80;12.30;;;;;;5034208;28;20472;-67
2022/12/27 08:00:48;;;;;;;7.13;2.03;;;4.80;15.50;;;;;;5033615;28;20456;-68
2022/12/27 08:03:17;;;;;;;8.73;2.57;;;4.80;35.20;;;;;;5034190;28;20460;-66
2022/12/27 08:05:48;;;;;;;5.63;2.27;;;4.80;99.90;;;;;;5034005;28;20452;-67
2022/12/27 08:08:16;;;;;;;4.57;1.63;;;4.80;99.90;;;;;;5034153;28;20463;-67
2022/12/27 08:10:43;;;;;;;6.90;2.23;;;4.80;1.00;;;;;;5035841;28;20462;-66
2022/12/27 08:13:10;;;;;;;10.30;2.67;;;4.80;1.00;;;;;;5037989;28;20482;-67
2022/12/27 08:15:37;;;;;;;3.47;2.40;;;4.80;1.00;;;;;;5038001;28;20486;-67
2022/12/27 08:18:04;;;;;;;10.47;2.73;;;4.80;1.00;;;;;;5038102;28;20896;-67
2022/12/27 08:20:33;;;;;;;3.63;1.90;;;4.80;99.90;;;;;;5038301;28;20939;-66
2022/12/27 08:23:00;;;;;;;6.80;2.33;;;4.70;1.00;;;;;;5038565;28;20455;-68
2022/12/27 08:25:28;;;;;;;4.27;2.50;;;4.70;1.00;;;;;;5038150;28;20922;-66
2022/12/27 08:28:03;;;;;;;4.53;2.40;;;4.70;1.00;;;;;;5038941;28;20455;-66
2022/12/27 08:30:29;;;;;;;6.60;2.60;;;4.70;1.00;;;;;;5038301;28;20440;-67
2022/12/27 08:32:56;;;;;;;3.53;2.27;;;4.70;1.00;;;;;;5039088;28;20455;-67
2022/12/27 08:35:23;;;;;;;5.57;2.43;;;4.70;1.00;;;;;;5039482;28;20780;-67
2022/12/27 08:37:51;;;;;;;6.13;2.23;;;4.80;99.90;;;;;;5038821;28;20466;-67
2022/12/27 08:40:18;;;;;;;4.90;2.50;;;4.80;99.90;;;;;;5040559;28;20472;-66
2022/12/27 08:42:45;;;;;;;4.13;2.23;;;4.90;99.90;;;;;;5039237;28;20571;-67
2022/12/27 08:45:13;;;;;;;6.90;2.77;;;5.00;1.00;;;;;;5038642;28;20582;-67
2022/12/27 08:47:39;;;;;;;5.10;2.37;;;5.00;1.00;;;;;;5038339;28;20467;-67
2022/12/27 08:50:07;;;;;;;5.13;3.40;;;5.00;1.00;;;;;;5037674;28;20463;-67
2022/12/27 08:52:34;;;;;;;7.40;2.60;;;5.00;1.00;;;;;;5037152;28;20484;-67
2022/12/27 08:55:03;;;;;;;3.67;2.00;;;5.10;1.00;;;;;;5037158;28;20561;-67
2022/12/27 08:57:30;;;;;;;4.73;2.33;;;5.00;1.00;;;;;;5037134;28;20478;-67
2022/12/27 08:59:57;;;;;;;7.40;2.67;;;5.10;26.80;;;;;;5036760;28;20932;-66
2022/12/27 09:02:23;;;;;;;6.90;2.47;;;5.10;1.00;;;;;;5036944;28;20510;-66
2022/12/27 09:04:50;;;;;;;6.07;2.37;;;5.10;1.00;;;;;;5036981;28;20463;-67
2022/12/27 09:07:17;;;;;;;9.53;2.63;;;5.10;1.00;;;;;;5038917;28;20460;-69
2022/12/27 09:09:44;;;;;;;5.17;2.10;;;5.10;99.90;;;;;;5038988;28;20570;-67
2022/12/27 09:12:12;;;;;;;7.13;2.40;;;5.10;1.00;;;;;;5036900;28;20466;-67
2022/12/27 09:14:39;;;;;;;4.57;2.37;;;5.20;99.90;;;;;;5036585;28;20452;-68
2022/12/27 09:17:08;;;;;;;5.60;2.43;;;5.20;1.00;;;;;;5036618;28;20921;-67
2022/12/27 09:19:35;;;;;;;4.20;2.20;;;5.20;1.00;;;;;;5036677;28;20460;-67
2022/12/27 09:22:02;;;;;;;7.70;2.50;;;5.30;1.00;;;;;;5036396;28;20456;-66
2022/12/27 09:24:29;;;;;;;5.23;2.90;;;5.20;1.00;;;;;;5037222;28;20460;-67
2022/12/27 09:26:55;;;;;;;7.60;2.83;;;5.30;58.90;;;;;;5036894;28;20452;-66
2022/12/27 09:29:24;;;;;;;5.20;2.93;;;5.30;1.00;;;;;;5036971;28;20456;-65
2022/12/27 09:31:50;;;;;;;4.73;2.40;;;5.30;1.00;;;;;;5037023;28;20455;-67
2022/12/27 09:34:17;;;;;;;7.20;2.70;;;5.30;99.90;;;;;;5036489;28;20461;-67
2022/12/27 09:36:44;;;;;;;5.40;2.83;;;5.40;1.00;;;;;;5036293;28;20571;-68
2022/12/27 09:39:12;;;;;;;3.90;2.40;;;5.40;99.90;;;;;;5036301;28;20932;-68
2022/12/27 09:41:49;;;;;;;8.40;3.03;;;5.40;99.90;;;;;;5036249;28;20491;-66
2022/12/27 09:44:22;;;;;;;4.60;2.20;;;5.40;1.00;;;;;;5036118;28;20915;-67
2022/12/27 09:46:55;;;;;;;5.00;2.50;;;5.40;99.90;;;;;;5036103;28;20522;-66
2022/12/27 09:49:30;;;;;;;5.80;2.50;;;5.60;1.00;;;;;;5036512;28;20472;-66
2022/12/27 09:52:00;;;;;;;3.93;2.20;;;5.70;1.00;;;;;;5035994;28;20840;-67
2022/12/27 09:54:30;;;;;;;3.97;2.30;;;5.70;90.00;;;;;;5036727;28;20452;-67
2022/12/27 09:57:00;;;;;;;3.00;2.10;;;5.90;99.90;;;;;;5036216;28;20555;-67
2022/12/27 09:59:31;;;;;;;5.13;2.33;;;5.90;99.90;;;;;;5035944;28;20453;-68
2022/12/27 10:02:00;;;;;;;4.40;2.70;;;5.90;99.90;;;;;;5036408;28;20773;-66
2022/12/27 10:04:29;;;;;;;4.97;2.57;;;6.00;99.90;;;;;;5035278;28;20456;-67
2022/12/27 10:07:09;;;;;;;5.97;2.60;;;6.00;99.90;;;;;;5035800;28;20460;-68
2022/12/27 10:09:57;;;;;;;8.30;2.70;;;6.00;99.90;;;;;;5035636;28;20462;-66
2022/12/27 10:12:41;;;;;;;9.80;3.30;;;6.00;99.90;;;;;;5035902;28;20824;-66
2022/12/27 10:15:22;;;;;;;8.90;2.70;;;6.00;99.90;;;;;;5034657;28;20908;-68
2022/12/27 10:18:02;;;;;;;7.50;3.00;;;6.00;99.90;;;;;;5035107;28;20448;-67
2022/12/27 10:20:42;;;;;;;6.27;2.70;;;6.00;99.90;;;;;;5034820;28;20451;-67
2022/12/27 10:23:13;;;;;;;6.70;2.60;;;6.00;99.90;;;;;;5035453;28;20462;-68
2022/12/27 10:25:41;;;;;;;5.80;2.53;;;6.00;99.90;;;;;;5034959;28;20523;-67
2022/12/27 10:28:15;;;;;;;4.70;2.77;;;6.00;99.90;;;;;;5035412;28;20467;-65
2022/12/27 10:30:42;;;;;;;6.90;3.20;;;6.10;99.90;;;;;;5035406;28;20523;-67
2022/12/27 10:33:19;;;;;;;5.30;3.10;;;6.10;99.90;;;;;;5034998;28;20510;-66
2022/12/27 10:35:47;;;;;;;5.00;2.53;;;6.20;99.90;;;;;;5035147;28;20506;-67
2022/12/27 10:38:14;;;;;;;4.40;2.73;;;6.20;99.90;;;;;;5035099;28;20470;-67
2022/12/27 10:40:51;;;;;;;5.40;3.33;;;6.30;99.90;;;;;;5034796;28;20787;-68
2022/12/27 10:43:23;;;;;;;10.30;3.77;;;6.40;99.90;;;;;;5035747;28;20444;-67
2022/12/27 10:45:50;;;;;;;8.30;3.37;;;6.40;99.90;;;;;;5034616;28;20480;-67
2022/12/27 10:48:20;;;;;;;5.30;3.70;;;6.40;99.90;;;;;;5035142;28;20456;-66
2022/12/27 10:50:50;;;;;;;4.63;3.53;;;6.40;99.90;;;;;;5035493;28;20494;-68
2022/12/27 10:53:31;;;;;;;5.50;2.90;;;6.40;99.90;;;;;;5034972;28;20470;-67
2022/12/27 10:56:07;;;;;;;5.17;3.73;;;6.40;99.90;;;;;;5035055;28;20464;-68
2022/12/27 10:58:39;;;;;;;5.67;3.53;;;6.30;99.90;;;;;;5035256;28;20528;-67
2022/12/27 11:01:13;;;;;;;8.77;3.50;;;6.20;99.90;;;;;;5035246;28;20535;-67
2022/12/27 11:03:41;;;;;;;7.30;3.53;;;6.20;99.90;;;;;;5034633;28;20459;-66
2022/12/27 11:06:20;;;;;;;6.13;3.80;;;6.20;99.90;;;;;;5039783;28;20776;-66
2022/12/27 11:08:47;;;;;;;9.47;4.00;;;6.20;99.90;;;;;;5054882;28;20444;-67
2022/12/27 11:11:17;;;;;;;7.17;4.00;;;6.20;99.90;;;;;;5054570;28;20463;-67
2022/12/27 11:13:46;;;;;;;6.43;3.73;;;6.20;99.90;;;;;;5054786;28;20509;-67
2022/12/27 11:16:17;;;;;;;7.03;3.47;;;6.20;99.90;;;;;;5054441;28;20498;-67
2022/12/27 11:18:50;;;;;;;6.63;3.77;;;6.20;99.90;;;;;;5055023;28;20746;-67
2022/12/27 11:21:17;;;;;;;6.00;3.67;;;6.20;99.90;;;;;;5054771;28;21024;-67
2022/12/27 11:23:48;;;;;;;5.93;3.20;;;6.20;99.90;;;;;;5054460;28;20516;-67
2022/12/27 11:26:21;;;;;;;6.03;4.13;;;6.20;99.90;;;;;;5047563;28;20548;-66
2022/12/27 11:28:53;;;;;;;8.67;3.43;;;6.20;99.90;;;;;;5034359;28;20517;-67
2022/12/27 11:31:30;;;;;;;5.67;3.57;;;6.20;99.90;;;;;;5034555;28;20537;-67
2022/12/27 11:34:01;;;;;;;12.70;4.00;;;6.20;99.90;;;;;;5034055;28;20539;-67
2022/12/27 11:36:31;;;;;;;7.70;4.07;;;6.20;99.90;;;;;;5034404;28;20468;-66
2022/12/27 11:38:59;;;;;;;5.63;3.10;;;6.20;99.90;;;;;;5034430;28;20452;-67
2022/12/27 11:41:37;;;;;;;8.80;4.27;;;6.20;99.90;;;;;;5033993;28;20523;-67
2022/12/27 11:44:13;;;;;;;6.83;4.17;;;6.30;99.90;;;;;;5035288;28;20876;-66
2022/12/27 11:46:44;;;;;;;7.50;4.17;;;6.30;99.90;;;;;;5021357;28;20494;-67
2022/12/27 11:49:20;;;;;;;4.33;3.50;;;6.30;99.90;;;;;;5038205;28;20448;-67
2022/12/27 11:52:04;;;;;;;6.03;3.50;;;6.30;99.90;;;;;;5038354;28;20454;-67
2022/12/27 11:54:57;;;;;;;7.63;4.00;;;6.40;99.90;;;;;;5038567;28;20451;-68
2022/12/27 11:57:37;;;;;;;8.57;3.73;;;6.40;99.90;;;;;;5037589;28;20472;-67
2022/12/27 12:00:13;;;;;;;5.70;4.00;;;6.40;99.90;;;;;;5038071;28;20444;-68
2022/12/27 12:03:04;;;;;;;5.93;4.03;;;6.40;99.90;;;;;;5037633;28;20451;-67
2022/12/27 12:05:50;;;;;;;5.23;3.53;;;6.30;99.90;;;;;;5038049;28;20446;-67
2022/12/27 12:08:50;;;;;;;6.10;4.03;;;6.40;99.90;;;;;;5038309;28;20454;-67
2022/12/27 12:11:30;;;;;;;8.60;3.73;;;6.30;99.90;;;;;;5037727;28;20443;-67
2022/12/27 12:14:12;;;;;;;5.27;3.47;;;6.30;99.90;;;;;;5038028;28;20448;-67
2022/12/27 12:16:54;;;;;;;7.33;3.43;;;6.30;99.90;;;;;;5038000;28;20476;-66
2022/12/27 12:19:35;;;;;;;7.80;3.53;;;6.30;99.90;;;;;;5038634;28;20462;-67
2022/12/27 12:22:21;;;;;;;10.20;3.43;;;6.30;99.90;;;;;;5037884;28;20482;-67
2022/12/27 12:25:17;;;;;;;6.40;3.50;;;6.30;99.90;;;;;;5037610;28;20440;-67
2022/12/27 12:27:57;;;;;;;3.87;2.80;;;6.40;99.90;;;;;;5034013;28;20455;-66
2022/12/27 12:30:48;;;;;;;7.47;3.33;;;6.40;99.90;;;;;;5038339;28;20444;-67
2022/12/27 12:33:44;;;;;;;5.67;3.40;;;6.40;99.90;;;;;;5037094;28;20440;-67
2022/12/27 12:36:25;;;;;;;4.53;3.37;;;6.50;99.90;;;;;;5037312;28;20500;-68
2022/12/27 12:39:02;;;;;;;5.23;3.00;;;6.70;99.90;;;;;;5037835;28;20444;-66
2022/12/27 12:41:56;;;;;;;5.63;3.50;;;7.20;99.90;;;;;;5037321;28;20873;-67
2022/12/27 12:44:50;;;;;;;8.43;3.70;;;8.00;99.90;;;;;;5037352;28;20975;-67
2022/12/27 12:47:41;;;;;;;9.07;2.80;;;8.70;99.90;;;;;;5037195;28;20444;-68
2022/12/27 12:50:23;;;;;;;6.43;3.10;;;8.90;99.90;;;;;;5037447;28;20466;-67
2022/12/27 12:53:11;;;;;;;7.90;3.60;;;8.60;99.90;;;;;;5037362;28;20462;-68
2022/12/27 12:55:57;;;;;;;5.40;3.07;;;8.20;99.90;;;;;;5036875;28;20770;-67
2022/12/27 12:58:39;;;;;;;7.57;3.23;;;8.00;99.90;;;;;;5037467;28;20468;-68
2022/12/27 13:01:20;;;;;;;6.77;3.70;;;8.10;99.90;;;;;;5036837;28;20441;-67
2022/12/27 13:04:20;;;;;;;8.00;3.43;;;8.30;99.90;;;;;;5036962;28;20444;-68
2022/12/27 13:07:00;;;;;;;5.10;3.10;;;8.10;99.90;;;;;;5036968;28;20905;-67
2022/12/27 13:09:41;;;;;;;7.53;3.30;;;7.70;99.90;;;;;;5036538;28;20448;-67
2022/12/27 13:12:14;;;;;;;7.43;3.73;;;7.60;99.90;;;;;;5036917;28;20455;-67
2022/12/27 13:15:13;;;;;;;9.50;4.20;;;7.50;99.90;;;;;;5037021;28;20444;-66
2022/12/27 13:17:47;;;;;;;8.70;3.70;;;7.30;99.90;;;;;;5036536;28;20464;-66
2022/12/27 13:20:33;;;;;;;8.23;2.70;;;7.20;99.90;;;;;;5036851;28;20531;-66
2022/12/27 13:23:14;;;;;;;4.47;2.93;;;7.10;99.90;;;;;;5036310;28;20454;-67
2022/12/27 13:25:46;;;;;;;4.37;2.33;;;7.00;99.90;;;;;;5036755;28;20459;-67
2022/12/27 13:28:28;;;;;;;5.23;3.27;;;6.90;99.90;;;;;;5036624;28;20432;-67
2022/12/27 13:31:02;;;;;;;3.80;3.20;;;6.90;99.90;;;;;;5036285;28;20447;-67
2022/12/27 13:33:35;;;;;;;6.37;3.20;;;6.90;99.90;;;;;;5036323;28;20455;-67
2022/12/27 13:36:16;;;;;;;8.83;3.20;;;6.90;99.90;;;;;;5036387;28;20805;-67
2022/12/27 13:39:12;;;;;;;9.50;4.00;;;6.90;99.90;;;;;;5036197;28;20919;-67
2022/12/27 13:41:56;;;;;;;5.67;3.30;;;6.80;99.90;;;;;;5036414;28;20476;-67
2022/12/27 13:44:40;;;;;;;6.43;2.80;;;6.80;99.90;;;;;;5036284;28;20444;-67
2022/12/27 13:47:48;;;;;;;8.10;2.30;;;6.70;99.90;;;;;;5035771;28;20484;-67
2022/12/27 13:51:03;;;;;;;8.67;3.30;;;6.70;99.90;;;;;;4975748;28;20455;-68
2022/12/27 13:54:04;;;;;;;6.70;2.73;;;6.60;99.90;;;;;;4975598;28;20510;-67
2022/12/27 13:56:41;;;;;;;9.07;2.87;;;6.60;99.90;;;;;;5029728;28;20468;-67
2022/12/27 13:59:50;;;;;;;7.80;2.90;;;6.60;99.90;;;;;;5035906;28;20464;-67
2022/12/27 14:02:44;;;;;;;7.27;2.67;;;6.70;99.90;;;;;;5035851;28;20451;-67
2022/12/27 14:05:51;;;;;;;10.83;2.97;;;6.70;99.90;;;;;;5026034;28;20468;-67
2022/12/27 14:08:28;;;;;;;4.10;2.40;;;6.80;99.90;;;;;;5035958;28;20912;-67
2022/12/27 14:10:55;;;;;;;8.40;2.40;;;6.80;99.90;;;;;;5035902;28;20441;-67
2022/12/27 14:13:26;;;;;;;4.37;2.50;;;6.80;99.90;;;;;;5035671;28;20462;-67
2022/12/27 14:16:26;;;;;;;6.23;2.90;;;6.90;99.90;;;;;;5035854;28;20450;-68
2022/12/27 14:19:15;;;;;;;8.60;3.83;;;6.90;99.90;;;;;;5033917;28;20976;-67
2022/12/27 14:22:00;;;;;;;5.60;2.50;;;6.90;99.90;;;;;;5035762;28;20463;-65
2022/12/27 14:25:01;;;;;;;7.63;2.93;;;6.90;99.90;;;;;;5035813;28;20462;-67
2022/12/27 14:27:53;;;;;;;7.67;2.97;;;6.80;99.90;;;;;;5034923;28;20451;-67
2022/12/27 14:30:48;;;;;;;7.73;3.20;;;6.80;99.90;;;;;;5035364;28;20769;-67
2022/12/27 14:33:55;;;;;;;7.70;2.93;;;6.70;99.90;;;;;;5035092;28;20462;-68
2022/12/27 14:36:47;;;;;;;7.50;3.60;;;6.60;99.90;;;;;;5017737;28;20452;-71
2022/12/27 14:40:00;;;;;;;9.23;4.00;;;6.60;99.90;;;;;;5035007;28;20476;-64
2022/12/27 14:43:10;;;;;;;4.90;3.60;;;6.60;99.90;;;;;;5035322;28;20462;-64
2022/12/27 14:46:12;;;;;;;6.17;3.60;;;6.50;99.90;;;;;;5029718;28;20486;-63
2022/12/27 14:49:18;;;;;;;10.30;3.00;;;6.50;99.90;;;;;;5034151;28;20547;-64
2022/12/27 14:52:21;;;;;;;8.60;4.10;;;6.50;99.90;;;;;;5037328;28;20995;-64
2022/12/27 14:55:26;;;;;;;11.10;3.80;;;6.40;99.90;;;;;;5054861;28;20443;-64
2022/12/27 14:58:19;;;;;;;7.10;4.03;;;6.30;99.90;;;;;;5054834;28;20477;-64
2022/12/27 15:01:14;;;;;;;11.10;3.50;;;6.30;99.90;;;;;;5054518;28;20481;-65
2022/12/27 15:03:54;;;;;;;14.90;3.47;;;6.30;99.90;;;;;;5051440;28;20802;-64
2022/12/27 15:06:34;;;;;;;6.57;3.37;;;6.30;99.90;;;;;;5054790;28;20514;-63
2022/12/27 15:09:13;;;;;;;8.40;3.27;;;6.20;99.90;;;;;;5054723;28;20457;-64
2022/12/27 15:12:07;;;;;;;6.43;3.13;;;6.20;99.90;;;;;;5054363;28;20893;-62
2022/12/27 15:15:01;;;;;;;11.63;3.20;;;6.10;99.90;;;;;;5054343;28;20786;-63
2022/12/27 15:17:45;;;;;;;7.40;3.93;;;6.10;99.90;;;;;;5054166;28;20565;-63
2022/12/27 15:20:31;;;;;;;6.03;3.30;;;6.10;99.90;;;;;;5054154;28;20454;-64